Kelleys Island, Ohio
Current Conditions -  °F | °C
As of 12:52 PM on Monday 24 Nov 2014 (Local Time) from KPCW Reporting Station
Light Rain Light Rain  
Wind Chill: 59°   Ceiling: 3800
Heat Index: 59°   Visibility: 7mi
Dew Point: 50°   Wind: 38mph
Humidity: 72%   Direction: 230°SW
Pressure: 29.24"   Gusts: 41mph
Location:  41.6°N, 82.71°W
Report Text: KPCW 241752Z AUTO 23033G36KT 7SM -RA FEW021 SCT029 BKN038 15/10 A2924 RMK
Loading
Personal Weather Stations






























Interactive Weather Map New forecast layout! Learn more

10-Day Weather Forecast

Advertisements
Track Severe Weather on mobile